Latest METARs, TAFs and NOTAMs for MGGT


---------------------------------------------------------------------------
	(OBSERVATIONS)
MGGT 241400Z 00000KT 9999 FEW014 OVC200 19/17 Q1025 A3027=
MGGT 241300Z 00000KT 8000 SCT014 BKN090 17/16 Q1025 A3027 FEW200
    BR=
MGGT 241200Z 00000KT 5000S BR SCT014 BKN080 16/15 Q1024 A3024=
---------------------------------------------------------------------------
	(TERMINAL AREA FORECAST)
MGGT 241100Z 2412/2512 00000KT 9999 SCT016 BKN080 TX25/2420Z
    TN18/2412Z
    TEMPO 2412/2414 3000 BR
    BECMG 2414/2416 18008KT FEW018
    BECMG 2418/2420 SCT020
    TEMPO 2421/2503 8000 VCTSRA FEW025CB
    BECMG 2502/2504 SCT016
    TEMPO 2508/2512 5000 BR FEW008=
---------------------------------------------------------------------------
	(NOTAMS)


MGGT A0187/16 REF MGGT AD 2-27 ACFT STAND 3A CHG COORD 143513.74173N
    0903147.23383W. 01 FEB 17:30 2016 UNTIL PERM. CREATED: 01
    FEB 17:21 2016

MGGT A0188/16 REF MGGT AD 2-27 ACFT STAND 5A CHG COORD 143518.23955N
    0903145.69390W. 01 FEB 17:30 2016 UNTIL PERM. CREATED: 01
    JAN 15:31 2017

MGGT A0938/17 GUATEMALA AIP AIRAC EFFECTIVE DATE 22 JUN 2017
    NIL. 22 JUN 00:00 2017 UNTIL 05 JUL 23:59 2017. CREATED:
    12 MAY 16:09 2017

MGGT A0942/17 RWY 02/20 CLSD DUE MEN AND EQPT WORKING DUE MAINT.
    0500-1100, 01 JUL 05:00 2017 UNTIL 11 SEP 11:00 2017. CREATED:
    12 MAY 19:18 2017

MGGT A0971/17 AD GRASS CUTTING INPR AT GREEN AREA ACFT EXER CTN
    DUE MEN AND EQPT WORKING REQ ATC INSTRUCTIONS. DAILY 1500-2300,
    17 MAY 19:00 2017 UNTIL 08 SEP 23:00 2017. CREATED: 17 MAY
    18:14 2017

MGGT A1000/17 RWY 02/20 CLSD DUE MEN AND EQPT WORKING DUE MAINT.
    MON TO SAT 0500-1100, 23 MAY 05:00 2017 UNTIL 30 JUN 11:00
    2017. CREATED: 22 MAY 00:31 2017

MGGT A1018/17 RNAV X RWY 02 PROCEDURE NOT AVBL RNAV W RWY 02
    PROCEDURE NOT AVBL RNAV X RWY 20 PROCEDURE GT599 NOT AVBL.
    23 MAY 18:04 2017 UNTIL 23 AUG 23:59 2017. CREATED: 23 MAY
    18:06 2017

MGGT A1028/17 AD LIMITED FOR GENERAL AVIATION CAT A AND B FIX
    WING ONLY. MON , TUE, WED, THU, FRY, SAT 1101-1300, 24 MAY
    11:01 2017 UNTIL 30 JUN 13:00 2017. CREATED: 24 MAY 03:56
    2017

MGGT A1037/17 REIL RWY 02/20 U/S DUE MAINT. 25 MAY 22:00 2017
    UNTIL 25 AUG 22:00 2017. CREATED: 25 MAY 21:55 2017

MGGT A1115/17 SWY RWY 02 OPR BUT ACFT EXER CTN DUE MEN AND EQPT
    WORKING TO 60 M THE SOUTH REQ ATC INSTRUCTIONS. DAILY 1500-2300,
    09 JUN 15:00 2017 UNTIL 09 JUL 23:00 2017. CREATED: 08 JUN
    23:57 2017

MGGT A1145/17 PAPI RWY 20 U/S. 15 JUN 00:00 2017 UNTIL 15 SEP
    23:59 2017. CREATED: 14 JUN 21:56 2017

MGGT A1194/17 ILS RWY 02 ID IAAI FREQ 110.1MHZ OPR BUT OSCILLANTING
    BTN 1.8NM DME AND 1NM FM GLIDE SLOPE. 21 JUN 22:47 2017 UNTIL
    21 SEP 23:59 2017. CREATED: 21 JUN 23:02 2017

MGGT A2953/15 INST APCH PROC VOR Y RWY 02 VOR Z RWY 02 FAF ULDES
    CHG ALT TO 6300 FT. 21 DEC 20:49 2015 UNTIL PERM. CREATED:
    21 DEC 20:49 2015

MGGT A2954/15 INST APCH PROC ILS Y RWY 02 ILS Z RWY 02 FAP VILAN
    CHG COORD TO 143004.10N 0903313.93W. 21 DEC 20:50 2015 UNTIL
    PERM. CREATED: 21 DEC 20:50 2015

MGGT F0011/08 [DEFENSE ENERGY SUPPORT CENTER ADVISORY] FUEL AVAILABILITY
    LIMITED BEGINNING MAY 3, 2008 DAILY VOLUME WILL BE REDUCED
    FOR GOVERNMENT CONTRACT FUEL (SP0600-05-D-0003). CALL AHEAD
    TO ENURE FUEL AVAILABILITY. STAFF DUTY OFFICER #DSN 427-8420.
    05 AUG 01:17 2020 UNTIL 05 AUG 30:17 2020

MGGT F0014/08 [DEFENSE ENERGY SUPPORT CENTER ADVISORY] FUEL AVAILABILITY
    LIMITED QUANTITY UNTIL FURTHER NOTICE. PHONE AHEAD FOR FUEL
    AVAILABILITY. 05 AUG 08:12 2020 UNTIL 06 AUG 10:12 2020

MGGT F0044/11 [DEFENSE ENERGY SUPPORT CENTER ADVISORY] FUEL AVAILABILITY
    HOURS OF SERVICE ARE NEW FUELING HOURS FROM 09:00 AM TO 4:00
    PM. ALL FUELINGS OUTSIDE THIS SCHEDULE, WILL BE PROVIDED
    AT THE SOUTH INTERNATIONAL RAMP SO THAT ANY PERMISSION MUST
    BE OBTAINED FROM DGAC (DIRECCION GENERAL DE AERONAUTICA CIVIL),
    BY ALL CUSTOMERS IN CASE IT IS NECESSARY. DLA ENERGY DUTY
    OFFICER'S TELEPHONE NUMBER IS 703-767-8420, DSN 427-8420.
    06 NOV 14:14 2020 UNTIL 08 NOV 30:14 2020

---------------------------------------------------------------------------